Thomson Spirit — 9HA2336 — position and weather

sailwx.info

Track history (hours):
 
Tides and Currents Weather Stations Pressure Air Temp Water Temp Dewpoint Dewpoint Depression Visibility Wind Speed Wind Dir Waves Ship Positions

Thomson Spirit

Last reported at 2017-Jun-23 16:07 UTC. Time now 2017-Jun-23 20:36 UTC.
Position N 38°17' E 017°09'.

Length 214 m; draft 8 m.

Type: Passenger vessel. MMSI: 248368000.

Date/timePositionNaut miles runAvg speedWind from/ knotsBaromVisibWave heightAir tempDewpointWater temp
2017-Jun-23 16:07N 38°17' E 017°09'215.3
2017-Jun-23 15:59N 38°18' E 017°11'1615.2
2017-Jun-23 14:57N 38°30' E 017°23'1414.7
2017-Jun-23 14:00N 38°41' E 017°35'1214.8
2017-Jun-23 13:12N 38°50' E 017°44'615.1
2017-Jun-23 12:46N 38°55' E 017°50'415.3
2017-Jun-23 12:30N 38°58' E 017°53'815.4
2017-Jun-23 12:00N 39°05' E 017°59'815.4
2017-Jun-23 11:27N 39°11' E 018°06'715.2
2017-Jun-23 11:00N 39°16' E 018°12'222 5.7
2017-Jun-21 19:43N 42°46' E 016°36'61 3.5
2017-Jun-21 02:17N 43°30' E 015°39'413.6
2017-Jun-21 01:58N 43°31' E 015°33'712.9
2017-Jun-21 01:23N 43°34' E 015°24'813.0
2017-Jun-21 00:48N 43°37' E 015°14'2413.1
2017-Jun-20 22:57N 43°50' E 014°46'1013.9
2017-Jun-20 22:13N 43°58' E 014°36'314.0
2017-Jun-20 22:00N 43°60' E 014°34'713.3
2017-Jun-20 21:30N 44°06' E 014°30'1110.8
2017-Jun-20 20:29N 44°17' E 014°30'8 7.6
2017-Jun-20 19:28N 44°23' E 014°37'9 0.6
2017-Jun-20 03:17N 44°18' E 014°48'25 7.1
2017-Jun-19 23:45N 44°15' E 014°13'1 5.8
2017-Jun-19 23:30N 44°15' E 014°11'10 5.8
2017-Jun-19 21:44N 44°22' E 014°01'4 6.7
2017-Jun-19 21:09N 44°25' E 013°58'2 6.8
2017-Jun-19 20:50N 44°27' E 013°57'2 6.8
2017-Jun-19 20:28N 44°29' E 013°55'4 7.0
2017-Jun-19 19:56N 44°32' E 013°52'5 7.0
2017-Jun-19 19:17N 44°36' E 013°48'3 6.8
2017-Jun-19 18:48N 44°39' E 013°46'2 7.0
2017-Jun-19 18:30N 44°40' E 013°45'4 7.0
2017-Jun-19 17:58N 44°44' E 013°45'7 6.8
2017-Jun-19 16:55N 44°51' E 013°46'2 5.4
2017-Jun-19 16:29N 44°53' E 013°48'0 0.0
2017-Jun-19 04:14N 44°53' E 013°48'2 7.8
2017-Jun-19 04:00N 44°52' E 013°45'713.5
2017-Jun-19 03:30N 44°56' E 013°37'612.3
2017-Jun-19 03:00N 44°58' E 013°29'3 5.9
2017-Jun-19 02:30N 44°60' E 013°26'3 5.9
2017-Jun-19 02:00N 45°01' E 013°22'3 6.1
2017-Jun-19 01:30N 45°03' E 013°18'3 6.0
2017-Jun-19 01:00N 45°04' E 013°15'3 6.0
2017-Jun-19 00:30N 45°05' E 013°11'3 6.0
2017-Jun-19 00:00N 45°07' E 013°07'3 5.7
2017-Jun-18 23:30N 45°09' E 013°04'3 5.7
2017-Jun-18 23:00N 45°11' E 013°03'3 5.8
2017-Jun-18 22:30N 45°14' E 013°02'3 5.6
2017-Jun-18 22:00N 45°17' E 013°01'3 5.3
2017-Jun-18 21:30N 45°19' E 012°59'3 5.6
2017-Jun-18 21:00N 45°20' E 012°56'3 5.6
2017-Jun-18 20:30N 45°21' E 012°52'3 5.6
2017-Jun-18 20:00N 45°20' E 012°48'3 5.2
2017-Jun-18 19:30N 45°21' E 012°44'3 5.3
2017-Jun-18 19:00N 45°21' E 012°41'3 5.5
2017-Jun-18 18:30N 45°22' E 012°37'3 5.6
2017-Jun-18 18:00N 45°23' E 012°33'3 5.8
2017-Jun-18 17:30N 45°24' E 012°29'3 6.4
2017-Jun-18 17:00N 45°25' E 012°25'3 6.0
2017-Jun-18 16:30N 45°26' E 012°21'2 3.5
2017-Jun-18 15:59N 45°26' E 012°18'0 0.0
2017-Jun-18 15:23N 45°26' E 012°18'0 0.0
2017-Jun-18 14:50N 45°26' E 012°18'0 0.0
2017-Jun-18 14:20N 45°26' E 012°18'0 0.0
2017-Jun-18 13:41N 45°26' E 012°18'0 0.0
2017-Jun-18 13:29N 45°26' E 012°18'0 0.0
2017-Jun-18 12:59N 45°26' E 012°18'0 0.0
2017-Jun-18 12:29N 45°26' E 012°18'0 0.0
2017-Jun-18 11:53N 45°26' E 012°18'0 0.0
2017-Jun-18 11:11N 45°26' E 012°18'0 0.0
2017-Jun-18 10:59N 45°26' E 012°18'0 0.0
2017-Jun-18 10:26N 45°26' E 012°18'0 0.0
2017-Jun-18 09:59N 45°26' E 012°18'0 0.0
2017-Jun-18 09:29N 45°26' E 012°18'0 0.0
2017-Jun-18 08:56N 45°26' E 012°18'0 0.0
2017-Jun-18 07:50N 45°26' E 012°18'0 0.0
2017-Jun-18 07:20N 45°26' E 012°18'0 0.0
2017-Jun-18 06:50N 45°26' E 012°18'0 0.0
2017-Jun-18 06:20N 45°26' E 012°18'0 0.0
2017-Jun-18 05:59N 45°26' E 012°18'0 0.0
2017-Jun-18 05:29N 45°26' E 012°18'1 1.1
2017-Jun-18 05:00N 45°26' E 012°19'3 5.2
2017-Jun-18 04:28N 45°26' E 012°23'4 8.2
2017-Jun-18 04:00N 45°24' E 012°28'4 7.9
2017-Jun-18 03:30N 45°22' E 012°33'5 7.2
2017-Jun-18 02:46N 45°23' E 012°40'2 7.6
2017-Jun-18 02:29N 45°23' E 012°43'4 7.7
2017-Jun-18 02:00N 45°24' E 012°48'4 7.7
2017-Jun-18 01:28N 45°26' E 012°54'7 7.3
2017-Jun-18 00:33N 45°29' E 013°02'0 7.4
2017-Jun-18 00:29N 45°29' E 013°03'4 7.3
2017-Jun-18 00:00N 45°30' E 013°08'4 7.2
2017-Jun-17 23:30N 45°32' E 013°12'4 7.4
2017-Jun-17 23:00N 45°34' E 013°17'4 7.4
2017-Jun-17 22:30N 45°35' E 013°22'4 7.4
2017-Jun-17 22:00N 45°36' E 013°27'4 7.4
2017-Jun-17 21:30N 45°38' E 013°32'3 6.4
2017-Jun-17 21:00N 45°37' E 013°36'4 7.3
2017-Jun-17 20:30N 45°35' E 013°40'3 6.3
2017-Jun-17 20:00N 45°33' E 013°44'0 0.0
2017-Jun-17 19:28N 45°33' E 013°44'0 0.0
2017-Jun-17 18:56N 45°33' E 013°44'0 0.0
2017-Jun-17 18:28N 45°33' E 013°44'0 0.0
2017-Jun-17 17:56N 45°33' E 013°44'0 0.0
2017-Jun-17 17:28N 45°33' E 013°44'0 0.0
2017-Jun-17 16:58N 45°33' E 013°44'0 0.0
2017-Jun-17 16:28N 45°33' E 013°44'0 0.0
2017-Jun-17 15:52N 45°33' E 013°44'0 0.0
2017-Jun-17 15:26N 45°33' E 013°44'0 0.0
2017-Jun-17 14:58N 45°33' E 013°44'0 0.0
2017-Jun-17 14:28N 45°33' E 013°44'0 0.0
2017-Jun-17 13:16N 45°33' E 013°44'0 0.0
2017-Jun-17 12:58N 45°33' E 013°44'0 0.0
2017-Jun-17 12:28N 45°33' E 013°44'0 0.0
2017-Jun-17 11:56N 45°33' E 013°44'0 0.0
2017-Jun-17 11:28N 45°33' E 013°44'0 0.0
2017-Jun-17 10:58N 45°33' E 013°44'0 0.0
2017-Jun-17 10:28N 45°33' E 013°44'0 0.0
2017-Jun-17 09:52N 45°33' E 013°44'0 0.0
2017-Jun-17 09:28N 45°33' E 013°44'0 0.0
2017-Jun-17 08:58N 45°33' E 013°44'0 0.0
2017-Jun-17 08:20N 45°33' E 013°44'0 0.0
2017-Jun-17 07:58N 45°33' E 013°44'0 0.0
2017-Jun-17 07:26N 45°33' E 013°44'0 0.0
2017-Jun-17 06:58N 45°33' E 013°44'0 0.0
2017-Jun-17 06:28N 45°33' E 013°44'0 0.0
2017-Jun-17 05:58N 45°33' E 013°44'0 0.0
2017-Jun-17 05:30N 45°33' E 013°44'2 3.3
2017-Jun-17 05:00N 45°34' E 013°42'5 9.4
2017-Jun-17 04:30N 45°34' E 013°35'5 9.4
2017-Jun-17 04:00N 45°33' E 013°29'5 9.6
2017-Jun-17 03:30N 45°30' E 013°23'5 9.5
2017-Jun-17 03:00N 45°27' E 013°18'5 9.4
2017-Jun-17 02:30N 45°24' E 013°13'5 9.2
2017-Jun-17 02:00N 45°20' E 013°14'5 9.7
2017-Jun-17 01:30N 45°15' E 013°15'510.9
2017-Jun-17 01:00N 45°10' E 013°17'713.8
2017-Jun-17 00:31N 45°03' E 013°20'714.8
2017-Jun-17 00:00N 44°56' E 013°24'714.9
2017-Jun-16 23:31N 44°50' E 013°30'815.0
2017-Jun-16 23:00N 44°44' E 013°36'815.3
2017-Jun-16 22:31N 44°37' E 013°41'815.2
2017-Jun-16 22:01N 44°31' E 013°47'714.9
2017-Jun-16 21:30N 44°24' E 013°52'814.8
2017-Jun-16 20:58N 44°17' E 013°58'714.6
2017-Jun-16 20:31N 44°12' E 014°03'  
Track history (hours):
 
Tides and Currents Weather Stations Pressure Air Temp Water Temp Dewpoint Dewpoint Depression Visibility Wind Speed Wind Dir Waves Ship Positions

Thomson Spirit

Last reported at 2017-Jun-23 16:07 UTC. Time now 2017-Jun-23 20:36 UTC.
Position N 38°17' E 017°09'.

Length 214 m; draft 8 m.

Type: Passenger vessel. MMSI: 248368000.

Date/timePositionNaut miles runAvg speedWind from/ knotsBaromVisibWave heightAir tempDewpointWater temp
2017-Jun-23 16:07N 38°17' E 017°09'215.3
2017-Jun-23 15:59N 38°18' E 017°11'1615.2
2017-Jun-23 14:57N 38°30' E 017°23'1414.7
2017-Jun-23 14:00N 38°41' E 017°35'1214.8
2017-Jun-23 13:12N 38°50' E 017°44'615.1
2017-Jun-23 12:46N 38°55' E 017°50'415.3
2017-Jun-23 12:30N 38°58' E 017°53'815.4
2017-Jun-23 12:00N 39°05' E 017°59'815.4
2017-Jun-23 11:27N 39°11' E 018°06'715.2
2017-Jun-23 11:00N 39°16' E 018°12'222 5.7
2017-Jun-21 19:43N 42°46' E 016°36'61 3.5
2017-Jun-21 02:17N 43°30' E 015°39'413.6
2017-Jun-21 01:58N 43°31' E 015°33'712.9
2017-Jun-21 01:23N 43°34' E 015°24'813.0
2017-Jun-21 00:48N 43°37' E 015°14'2413.1
2017-Jun-20 22:57N 43°50' E 014°46'1013.9
2017-Jun-20 22:13N 43°58' E 014°36'314.0
2017-Jun-20 22:00N 43°60' E 014°34'713.3
2017-Jun-20 21:30N 44°06' E 014°30'1110.8
2017-Jun-20 20:29N 44°17' E 014°30'8 7.6
2017-Jun-20 19:28N 44°23' E 014°37'9 0.6
2017-Jun-20 03:17N 44°18' E 014°48'25 7.1
2017-Jun-19 23:45N 44°15' E 014°13'1 5.8
2017-Jun-19 23:30N 44°15' E 014°11'10 5.8
2017-Jun-19 21:44N 44°22' E 014°01'4 6.7
2017-Jun-19 21:09N 44°25' E 013°58'2 6.8
2017-Jun-19 20:50N 44°27' E 013°57'2 6.8
2017-Jun-19 20:28N 44°29' E 013°55'4 7.0
2017-Jun-19 19:56N 44°32' E 013°52'5 7.0
2017-Jun-19 19:17N 44°36' E 013°48'3 6.8
2017-Jun-19 18:48N 44°39' E 013°46'2 7.0
2017-Jun-19 18:30N 44°40' E 013°45'4 7.0
2017-Jun-19 17:58N 44°44' E 013°45'7 6.8
2017-Jun-19 16:55N 44°51' E 013°46'2 5.4
2017-Jun-19 16:29N 44°53' E 013°48'0 0.0
2017-Jun-19 04:14N 44°53' E 013°48'2 7.8
2017-Jun-19 04:00N 44°52' E 013°45'713.5
2017-Jun-19 03:30N 44°56' E 013°37'612.3
2017-Jun-19 03:00N 44°58' E 013°29'3 5.9
2017-Jun-19 02:30N 44°60' E 013°26'3 5.9
2017-Jun-19 02:00N 45°01' E 013°22'3 6.1
2017-Jun-19 01:30N 45°03' E 013°18'3 6.0
2017-Jun-19 01:00N 45°04' E 013°15'3 6.0
2017-Jun-19 00:30N 45°05' E 013°11'3 6.0
2017-Jun-19 00:00N 45°07' E 013°07'3 5.7
2017-Jun-18 23:30N 45°09' E 013°04'3 5.7
2017-Jun-18 23:00N 45°11' E 013°03'3 5.8
2017-Jun-18 22:30N 45°14' E 013°02'3 5.6
2017-Jun-18 22:00N 45°17' E 013°01'3 5.3
2017-Jun-18 21:30N 45°19' E 012°59'3 5.6
2017-Jun-18 21:00N 45°20' E 012°56'3 5.6
2017-Jun-18 20:30N 45°21' E 012°52'3 5.6
2017-Jun-18 20:00N 45°20' E 012°48'3 5.2
2017-Jun-18 19:30N 45°21' E 012°44'3 5.3
2017-Jun-18 19:00N 45°21' E 012°41'3 5.5
2017-Jun-18 18:30N 45°22' E 012°37'3 5.6
2017-Jun-18 18:00N 45°23' E 012°33'3 5.8
2017-Jun-18 17:30N 45°24' E 012°29'3 6.4
2017-Jun-18 17:00N 45°25' E 012°25'3 6.0
2017-Jun-18 16:30N 45°26' E 012°21'2 3.5
2017-Jun-18 15:59N 45°26' E 012°18'0 0.0
2017-Jun-18 15:23N 45°26' E 012°18'0 0.0
2017-Jun-18 14:50N 45°26' E 012°18'0 0.0
2017-Jun-18 14:20N 45°26' E 012°18'0 0.0
2017-Jun-18 13:41N 45°26' E 012°18'0 0.0
2017-Jun-18 13:29N 45°26' E 012°18'0 0.0
2017-Jun-18 12:59N 45°26' E 012°18'0 0.0
2017-Jun-18 12:29N 45°26' E 012°18'0 0.0
2017-Jun-18 11:53N 45°26' E 012°18'0 0.0
2017-Jun-18 11:11N 45°26' E 012°18'0 0.0
2017-Jun-18 10:59N 45°26' E 012°18'0 0.0
2017-Jun-18 10:26N 45°26' E 012°18'0 0.0
2017-Jun-18 09:59N 45°26' E 012°18'0 0.0
2017-Jun-18 09:29N 45°26' E 012°18'0 0.0
2017-Jun-18 08:56N 45°26' E 012°18'0 0.0
2017-Jun-18 07:50N 45°26' E 012°18'0 0.0
2017-Jun-18 07:20N 45°26' E 012°18'0 0.0
2017-Jun-18 06:50N 45°26' E 012°18'0 0.0
2017-Jun-18 06:20N 45°26' E 012°18'0 0.0
2017-Jun-18 05:59N 45°26' E 012°18'0 0.0
2017-Jun-18 05:29N 45°26' E 012°18'1 1.1
2017-Jun-18 05:00N 45°26' E 012°19'3 5.2
2017-Jun-18 04:28N 45°26' E 012°23'4 8.2
2017-Jun-18 04:00N 45°24' E 012°28'4 7.9
2017-Jun-18 03:30N 45°22' E 012°33'5 7.2
2017-Jun-18 02:46N 45°23' E 012°40'2 7.6
2017-Jun-18 02:29N 45°23' E 012°43'4 7.7
2017-Jun-18 02:00N 45°24' E 012°48'4 7.7
2017-Jun-18 01:28N 45°26' E 012°54'7 7.3
2017-Jun-18 00:33N 45°29' E 013°02'0 7.4
2017-Jun-18 00:29N 45°29' E 013°03'4 7.3
2017-Jun-18 00:00N 45°30' E 013°08'4 7.2
2017-Jun-17 23:30N 45°32' E 013°12'4 7.4
2017-Jun-17 23:00N 45°34' E 013°17'4 7.4
2017-Jun-17 22:30N 45°35' E 013°22'4 7.4
2017-Jun-17 22:00N 45°36' E 013°27'4 7.4
2017-Jun-17 21:30N 45°38' E 013°32'3 6.4
2017-Jun-17 21:00N 45°37' E 013°36'4 7.3
2017-Jun-17 20:30N 45°35' E 013°40'3 6.3
2017-Jun-17 20:00N 45°33' E 013°44'0 0.0
2017-Jun-17 19:28N 45°33' E 013°44'0 0.0
2017-Jun-17 18:56N 45°33' E 013°44'0 0.0
2017-Jun-17 18:28N 45°33' E 013°44'0 0.0
2017-Jun-17 17:56N 45°33' E 013°44'0 0.0
2017-Jun-17 17:28N 45°33' E 013°44'0 0.0
2017-Jun-17 16:58N 45°33' E 013°44'0 0.0
2017-Jun-17 16:28N 45°33' E 013°44'0 0.0
2017-Jun-17 15:52N 45°33' E 013°44'0 0.0
2017-Jun-17 15:26N 45°33' E 013°44'0 0.0
2017-Jun-17 14:58N 45°33' E 013°44'0 0.0
2017-Jun-17 14:28N 45°33' E 013°44'0 0.0
2017-Jun-17 13:16N 45°33' E 013°44'0 0.0
2017-Jun-17 12:58N 45°33' E 013°44'0 0.0
2017-Jun-17 12:28N 45°33' E 013°44'0 0.0
2017-Jun-17 11:56N 45°33' E 013°44'0 0.0
2017-Jun-17 11:28N 45°33' E 013°44'0 0.0
2017-Jun-17 10:58N 45°33' E 013°44'0 0.0
2017-Jun-17 10:28N 45°33' E 013°44'0 0.0
2017-Jun-17 09:52N 45°33' E 013°44'0 0.0
2017-Jun-17 09:28N 45°33' E 013°44'0 0.0
2017-Jun-17 08:58N 45°33' E 013°44'0 0.0
2017-Jun-17 08:20N 45°33' E 013°44'0 0.0
2017-Jun-17 07:58N 45°33' E 013°44'0 0.0
2017-Jun-17 07:26N 45°33' E 013°44'0 0.0
2017-Jun-17 06:58N 45°33' E 013°44'0 0.0
2017-Jun-17 06:28N 45°33' E 013°44'0 0.0
2017-Jun-17 05:58N 45°33' E 013°44'0 0.0
2017-Jun-17 05:30N 45°33' E 013°44'2 3.3
2017-Jun-17 05:00N 45°34' E 013°42'5 9.4
2017-Jun-17 04:30N 45°34' E 013°35'5 9.4
2017-Jun-17 04:00N 45°33' E 013°29'5 9.6
2017-Jun-17 03:30N 45°30' E 013°23'5 9.5
2017-Jun-17 03:00N 45°27' E 013°18'5 9.4
2017-Jun-17 02:30N 45°24' E 013°13'5 9.2
2017-Jun-17 02:00N 45°20' E 013°14'5 9.7
2017-Jun-17 01:30N 45°15' E 013°15'510.9
2017-Jun-17 01:00N 45°10' E 013°17'713.8
2017-Jun-17 00:31N 45°03' E 013°20'714.8
2017-Jun-17 00:00N 44°56' E 013°24'714.9
2017-Jun-16 23:31N 44°50' E 013°30'815.0
2017-Jun-16 23:00N 44°44' E 013°36'815.3
2017-Jun-16 22:31N 44°37' E 013°41'815.2
2017-Jun-16 22:01N 44°31' E 013°47'714.9
2017-Jun-16 21:30N 44°24' E 013°52'814.8
2017-Jun-16 20:58N 44°17' E 013°58'714.6
2017-Jun-16 20:31N 44°12' E 014°03'  

Dump ship's entire track history